Terminal Aerodrome Forecast
Issued by NWS Sterling, VA

Current Version | Previous Version | Graphics & Text | Print | Product List | Glossary On
Versions: 1 2 3 4 5 6 7 8 9 10 11 12 13 14 15 16 17 18 19 20 21 22 23
511
FTUS41 KLWX 051459 AAB
TAFDCA
TAF AMD
KDCA 051459Z 0515/0612 33013G26KT 5SM -SN OVC035
     FM051700 32015G24KT P6SM SCT050
     FM052300 31006KT P6SM SKC=

USA.gov is the U.S. government's official web portal to all federal, state and local government web resources and services.